Time;durP1;ratioP1;P1;durP2;ratioP2;P2;SDS_P1;SDS_P2;PMS_P1;PMS_P2;Temp;Humidity;BMP_temperature;BMP_pressure;BME280_temperature;BME280_humidity;BME280_pressure;Samples;Min_cycle;Max_cycle;Signal;HPM_P1;HPM_P2
2023/12/10 00:00:29;;;;;;;;;;;-0.10;99.90;;;;;;2684308;39;22207;31
2023/12/10 00:03:01;;;;;;;;;;;-0.20;99.90;;;;;;2605029;46;22278;31
2023/12/10 00:05:33;;;;;;;;;;;-0.50;99.90;;;;;;2585855;54;19981;31
2023/12/10 00:08:06;;;;;;;;;;;-0.20;99.90;;;;;;2586035;54;19935;31
2023/12/10 00:10:41;;;;;;;;;;;-0.60;99.90;;;;;;2586004;54;20084;31
2023/12/10 00:13:13;;;;;;;;;;;-0.10;99.90;;;;;;2586285;54;20837;31
2023/12/10 00:15:45;;;;;;;;;;;-0.50;99.90;;;;;;2585938;54;20705;31
2023/12/10 00:18:19;;;;;;;;;;;-0.40;99.90;;;;;;2586050;54;19934;31
2023/12/10 00:20:51;;;;;;;;;;;-0.40;99.90;;;;;;2604621;46;21077;31
2023/12/10 00:23:24;;;;;;;;;;;-0.40;99.90;;;;;;2684256;39;21078;31
2023/12/10 00:25:59;;;;;;;;;;;-0.30;99.90;;;;;;2585784;54;19957;31
2023/12/10 00:28:31;;;;;;;;;;;-0.50;99.90;;;;;;2585892;54;20936;31
2023/12/10 00:31:03;;;;;;;;;;;-0.50;99.90;;;;;;2586250;54;21781;31
2023/12/10 00:33:35;;;;;;;;;;;-0.50;99.90;;;;;;2586052;54;20707;31
2023/12/10 00:36:10;;;;;;;;;;;-0.30;99.90;;;;;;2586062;54;19934;31
2023/12/10 00:38:42;;;;;;;;;;;-3.00;99.90;;;;;;2604453;46;19946;31
2023/12/10 00:41:17;;;;;;;;;;;-0.40;99.90;;;;;;2585819;54;20885;31
2023/12/10 00:43:49;;;;;;;;;;;-0.40;99.90;;;;;;2604359;46;21142;31
2023/12/10 00:46:21;;;;;;;;;;;-0.30;99.90;;;;;;2586004;54;19934;31
2023/12/10 00:48:53;;;;;;;;;;;-0.30;99.90;;;;;;2585913;54;20793;31
2023/12/10 00:51:25;;;;;;;;;;;0.40;99.90;;;;;;2585997;54;19941;31
2023/12/10 00:53:57;;;;;;;;;;;-0.20;99.90;;;;;;2586027;54;19934;31
2023/12/10 00:56:34;;;;;;;;;;;0.00;99.90;;;;;;2585896;54;19941;31
2023/12/10 00:59:06;;;;;;;;;;;0.00;99.90;;;;;;2585885;54;20775;31
2023/12/10 01:01:42;;;;;;;;;;;-0.20;99.90;;;;;;2585965;54;20840;31
2023/12/10 01:04:14;;;;;;;;;;;-0.30;99.90;;;;;;2604604;46;20855;31
2023/12/10 01:06:46;;;;;;;;;;;0.30;99.90;;;;;;2604499;46;19935;31
2023/12/10 01:09:20;;;;;;;;;;;-0.10;99.90;;;;;;2585823;54;20021;31
2023/12/10 01:11:55;;;;;;;;;;;0.10;99.90;;;;;;2585547;54;20025;31
2023/12/10 01:14:27;;;;;;;;;;;-2.70;99.90;;;;;;2585665;54;19960;31
2023/12/10 01:16:59;;;;;;;;;;;0.10;99.90;;;;;;2585807;54;20703;31
2023/12/10 01:19:31;;;;;;;;;;;-0.10;99.90;;;;;;2604527;46;19941;31
2023/12/10 01:22:03;;;;;;;;;;;-0.30;99.90;;;;;;2585811;54;20756;31
2023/12/10 01:24:35;;;;;;;;;;;-0.10;99.90;;;;;;2604500;46;19941;31
2023/12/10 01:27:12;;;;;;;;;;;-3.10;99.90;;;;;;2586027;54;19941;31
2023/12/10 01:29:45;;;;;;;;;;;0.10;99.90;;;;;;2604393;46;19934;31
2023/12/10 01:32:17;;;;;;;;;;;0.20;99.90;;;;;;2585840;54;19961;31
2023/12/10 01:34:49;;;;;;;;;;;-2.60;99.90;;;;;;2585569;54;20679;31
2023/12/10 01:37:23;;;;;;;;;;;-0.10;99.90;;;;;;2604118;46;19934;31
2023/12/10 01:39:55;;;;;;;;;;;-0.10;99.90;;;;;;2585684;54;19941;31
2023/12/10 01:42:30;;;;;;;;;;;2.80;99.90;;;;;;2585511;54;20819;31
2023/12/10 01:45:03;;;;;;;;;;;0.40;99.90;;;;;;2585577;54;20737;31
2023/12/10 01:47:37;;;;;;;;;;;-0.10;99.90;;;;;;2586015;54;21817;31
2023/12/10 01:50:11;;;;;;;;;;;-0.20;99.90;;;;;;2585756;54;20906;31
2023/12/10 01:52:43;;;;;;;;;;;1.00;99.90;;;;;;2604048;46;20722;31
2023/12/10 01:55:15;;;;;;;;;;;0.00;99.90;;;;;;2604060;46;20692;31
2023/12/10 01:57:50;;;;;;;;;;;-0.10;99.90;;;;;;2585764;54;19939;31
2023/12/10 02:00:22;;;;;;;;;;;-3.00;99.90;;;;;;2604202;46;22230;31
2023/12/10 02:02:55;;;;;;;;;;;0.30;99.90;;;;;;2604506;46;21035;31
2023/12/10 02:05:27;;;;;;;;;;;-0.20;99.90;;;;;;2702251;39;20964;31
2023/12/10 02:08:00;;;;;;;;;;;0.20;99.90;;;;;;2604267;46;20803;31
2023/12/10 02:10:34;;;;;;;;;;;-0.30;99.90;;;;;;2604170;46;19941;31
2023/12/10 02:15:38;;;;;;;;;;;-0.20;99.90;;;;;;2585597;54;20827;31
2023/12/10 02:18:10;;;;;;;;;;;-0.40;99.90;;;;;;2585625;54;20818;31
2023/12/10 02:20:42;;;;;;;;;;;-0.30;99.90;;;;;;2702189;39;22230;31
2023/12/10 02:23:14;;;;;;;;;;;0.10;99.90;;;;;;2585520;54;19938;31
2023/12/10 02:25:51;;;;;;;;;;;-0.10;99.90;;;;;;2604363;46;20790;31
2023/12/10 02:28:23;;;;;;;;;;;-0.20;99.90;;;;;;2585438;54;19941;31
2023/12/10 02:30:55;;;;;;;;;;;-2.60;99.90;;;;;;2604183;46;19934;31
2023/12/10 02:33:27;;;;;;;;;;;0.50;99.90;;;;;;2585845;54;19941;31
2023/12/10 02:35:59;;;;;;;;;;;0.00;99.90;;;;;;2603841;46;20710;31
2023/12/10 02:38:31;;;;;;;;;;;-0.10;99.90;;;;;;2585584;54;20803;31
2023/12/10 02:41:06;;;;;;;;;;;-0.30;99.90;;;;;;2585574;54;20805;31
2023/12/10 02:43:38;;;;;;;;;;;-0.10;99.90;;;;;;2585802;54;19958;31
2023/12/10 02:46:10;;;;;;;;;;;-2.80;99.90;;;;;;2585724;54;19935;31
2023/12/10 02:48:42;;;;;;;;;;;0.00;99.90;;;;;;2603930;46;19934;31
2023/12/10 02:51:16;;;;;;;;;;;0.30;99.90;;;;;;2585481;54;20864;31
2023/12/10 02:53:48;;;;;;;;;;;1.20;99.90;;;;;;2585224;54;19935;31
2023/12/10 02:56:23;;;;;;;;;;;0.10;99.90;;;;;;2585249;54;19939;31
2023/12/10 02:58:55;;;;;;;;;;;0.40;99.90;;;;;;2585515;54;19935;31
2023/12/10 03:01:27;;;;;;;;;;;0.50;99.90;;;;;;2585357;54;19998;31
2023/12/10 03:03:59;;;;;;;;;;;0.10;99.90;;;;;;2585794;54;22276;31
2023/12/10 03:06:31;;;;;;;;;;;0.10;99.90;;;;;;2603879;47;20749;31
2023/12/10 03:09:04;;;;;;;;;;;0.40;99.90;;;;;;2585419;54;19956;31
2023/12/10 03:11:36;;;;;;;;;;;-2.40;99.90;;;;;;2585698;54;19941;31
2023/12/10 03:14:12;;;;;;;;;;;0.70;99.90;;;;;;2604948;47;22256;31
2023/12/10 03:16:44;;;;;;;;;;;0.90;99.90;;;;;;2755540;31;22427;31
2023/12/10 03:19:16;;;;;;;;;;;0.80;99.90;;;;;;2586525;54;19935;31
2023/12/10 03:21:48;;;;;;;;;;;0.80;99.90;;;;;;2585971;54;19986;31
2023/12/10 03:24:20;;;;;;;;;;;-1.40;99.90;;;;;;2586198;54;19957;31
2023/12/10 03:26:52;;;;;;;;;;;4.00;99.90;;;;;;2586173;54;20801;31
2023/12/10 03:29:27;;;;;;;;;;;0.80;99.90;;;;;;2586264;54;19949;31
2023/12/10 03:31:59;;;;;;;;;;;4.10;99.90;;;;;;2586073;54;19942;31
2023/12/10 03:34:31;;;;;;;;;;;-2.00;99.90;;;;;;2586441;54;20733;31
2023/12/10 03:37:05;;;;;;;;;;;0.80;99.90;;;;;;2586200;54;20908;31
2023/12/10 03:39:37;;;;;;;;;;;0.80;99.90;;;;;;2586210;54;20684;31
2023/12/10 03:42:09;;;;;;;;;;;1.00;99.90;;;;;;2586010;54;20874;31
2023/12/10 03:44:46;;;;;;;;;;;4.20;99.90;;;;;;2586266;54;19935;31
2023/12/10 03:47:18;;;;;;;;;;;-1.50;99.90;;;;;;2586218;54;20827;31
2023/12/10 03:49:50;;;;;;;;;;;4.40;99.90;;;;;;2586248;54;19961;31
2023/12/10 03:52:22;;;;;;;;;;;1.90;99.90;;;;;;2585974;54;20726;31
2023/12/10 03:54:54;;;;;;;;;;;1.00;99.90;;;;;;2585983;54;20084;31
2023/12/10 03:57:26;;;;;;;;;;;1.10;99.90;;;;;;2586019;54;20721;31
2023/12/10 04:00:01;;;;;;;;;;;1.00;99.90;;;;;;2586242;54;19940;31
2023/12/10 04:02:42;;;;;;;;;;;1.30;99.90;;;;;;2586169;54;20834;31
2023/12/10 04:05:14;;;;;;;;;;;3.90;99.90;;;;;;2604903;46;21000;31
2023/12/10 04:07:48;;;;;;;;;;;1.00;99.90;;;;;;2604346;46;20853;31
2023/12/10 04:10:22;;;;;;;;;;;4.20;99.90;;;;;;2586089;54;20861;31
2023/12/10 04:12:54;;;;;;;;;;;3.80;99.90;;;;;;2586347;54;19941;31
2023/12/10 04:15:29;;;;;;;;;;;1.00;99.90;;;;;;2585812;54;20004;31
2023/12/10 04:18:02;;;;;;;;;;;1.00;99.90;;;;;;2586089;54;20829;31
2023/12/10 04:20:34;;;;;;;;;;;4.10;99.90;;;;;;2604783;46;20789;31
2023/12/10 04:23:06;;;;;;;;;;;0.90;99.90;;;;;;2586033;54;20700;31
2023/12/10 04:25:38;;;;;;;;;;;0.90;99.90;;;;;;2585664;54;19934;31
2023/12/10 04:28:10;;;;;;;;;;;0.90;99.90;;;;;;2585825;54;20826;31
2023/12/10 04:30:45;;;;;;;;;;;1.10;99.90;;;;;;2585887;54;20677;31
2023/12/10 04:33:17;;;;;;;;;;;1.00;99.90;;;;;;2585937;54;20065;31
2023/12/10 04:35:49;;;;;;;;;;;1.20;99.90;;;;;;2604619;46;21759;31
2023/12/10 04:38:21;;;;;;;;;;;0.90;99.90;;;;;;2586038;54;19934;31
2023/12/10 04:40:53;;;;;;;;;;;4.10;99.90;;;;;;2586157;54;20814;31
2023/12/10 04:43:25;;;;;;;;;;;1.00;99.90;;;;;;2684127;39;22266;31
2023/12/10 04:46:00;;;;;;;;;;;1.40;99.90;;;;;;2585749;54;20825;31
2023/12/10 04:48:32;;;;;;;;;;;4.10;99.90;;;;;;2585761;54;19986;31
2023/12/10 04:51:04;;;;;;;;;;;1.10;99.90;;;;;;2604720;46;22324;31
2023/12/10 04:53:36;;;;;;;;;;;1.30;99.90;;;;;;2585967;54;20818;31
2023/12/10 04:56:09;;;;;;;;;;;4.20;99.90;;;;;;2585807;54;20843;31
2023/12/10 04:58:40;;;;;;;;;;;4.00;99.90;;;;;;2604491;46;21034;31
2023/12/10 05:01:15;;;;;;;;;;;1.30;99.90;;;;;;2604450;46;19941;31
2023/12/10 05:03:47;;;;;;;;;;;0.90;99.90;;;;;;2604584;46;20841;31
2023/12/10 05:06:19;;;;;;;;;;;4.20;99.90;;;;;;2585742;54;20741;31
2023/12/10 05:08:51;;;;;;;;;;;1.00;99.90;;;;;;2604151;46;20020;31
2023/12/10 05:11:23;;;;;;;;;;;1.00;99.90;;;;;;2585688;54;20914;31
2023/12/10 05:13:55;;;;;;;;;;;4.20;99.90;;;;;;2604382;46;19935;31
2023/12/10 05:16:30;;;;;;;;;;;0.90;99.90;;;;;;2586153;54;19984;31
2023/12/10 05:19:02;;;;;;;;;;;1.10;99.90;;;;;;2604472;46;20805;31
2023/12/10 05:21:34;;;;;;;;;;;4.30;99.90;;;;;;2585913;54;19935;31
2023/12/10 05:24:06;;;;;;;;;;;1.30;99.90;;;;;;2585842;54;20771;31
2023/12/10 05:26:38;;;;;;;;;;;1.00;99.90;;;;;;2585934;54;19939;31
2023/12/10 05:29:10;;;;;;;;;;;4.10;99.90;;;;;;2604707;46;21011;31
2023/12/10 05:31:45;;;;;;;;;;;1.00;99.90;;;;;;2585746;54;19935;31
2023/12/10 05:34:17;;;;;;;;;;;-1.30;99.90;;;;;;2604262;46;20804;31
2023/12/10 05:36:49;;;;;;;;;;;1.00;99.90;;;;;;2603849;46;19934;31
2023/12/10 05:39:21;;;;;;;;;;;1.00;99.90;;;;;;2585870;54;20801;31
2023/12/10 05:41:53;;;;;;;;;;;1.00;99.90;;;;;;2585601;54;20901;31
2023/12/10 05:44:26;;;;;;;;;;;4.30;99.90;;;;;;2585481;54;20805;31
2023/12/10 05:47:01;;;;;;;;;;;1.00;99.90;;;;;;2586029;54;20030;31
2023/12/10 05:49:33;;;;;;;;;;;1.00;99.90;;;;;;2604345;46;20868;31
2023/12/10 05:52:06;;;;;;;;;;;0.90;99.90;;;;;;2585789;54;19934;31
2023/12/10 05:54:39;;;;;;;;;;;4.20;99.90;;;;;;2585718;54;19939;31
2023/12/10 05:57:13;;;;;;;;;;;-1.40;99.90;;;;;;2585966;54;19958;31
2023/12/10 05:59:46;;;;;;;;;;;-2.10;99.90;;;;;;2585812;54;19990;31
2023/12/10 06:02:21;;;;;;;;;;;1.40;99.90;;;;;;2684005;39;22250;31
2023/12/10 06:04:53;;;;;;;;;;;-2.30;99.90;;;;;;2585750;54;20807;31
2023/12/10 06:07:25;;;;;;;;;;;4.10;99.90;;;;;;2585729;54;19934;31
2023/12/10 06:10:02;;;;;;;;;;;1.20;99.90;;;;;;2585710;54;19961;31
2023/12/10 06:12:34;;;;;;;;;;;-1.40;99.90;;;;;;2604310;46;21015;31
2023/12/10 06:15:09;;;;;;;;;;;0.90;99.90;;;;;;2585601;54;20669;31
2023/12/10 06:17:44;;;;;;;;;;;1.00;99.90;;;;;;2585742;54;20771;31
2023/12/10 06:20:16;;;;;;;;;;;1.00;99.90;;;;;;2585601;54;20025;31
2023/12/10 06:22:48;;;;;;;;;;;-1.80;99.90;;;;;;2585662;54;19941;31
2023/12/10 06:25:20;;;;;;;;;;;1.20;99.90;;;;;;2585540;54;20823;31
2023/12/10 06:27:54;;;;;;;;;;;4.30;99.90;;;;;;2603455;46;19946;31
2023/12/10 06:30:26;;;;;;;;;;;1.10;99.90;;;;;;2585703;54;19954;31
2023/12/10 06:33:01;;;;;;;;;;;1.00;99.90;;;;;;2585520;54;20733;31
2023/12/10 06:35:33;;;;;;;;;;;1.10;99.90;;;;;;2585422;54;20034;31
2023/12/10 06:38:05;;;;;;;;;;;1.10;99.90;;;;;;2585461;54;19938;31
2023/12/10 06:40:37;;;;;;;;;;;-1.10;99.90;;;;;;2604095;46;19934;31
2023/12/10 06:43:09;;;;;;;;;;;-1.50;99.90;;;;;;2585675;54;20783;31
2023/12/10 06:45:41;;;;;;;;;;;1.10;99.90;;;;;;2603890;46;21733;31
2023/12/10 06:48:18;;;;;;;;;;;1.00;99.90;;;;;;2604175;46;19941;31
2023/12/10 06:50:50;;;;;;;;;;;1.20;99.90;;;;;;2603866;46;19938;31
2023/12/10 06:53:22;;;;;;;;;;;1.20;99.90;;;;;;2585351;54;19961;31
2023/12/10 06:55:54;;;;;;;;;;;1.20;99.90;;;;;;2585670;54;20811;31
2023/12/10 06:58:28;;;;;;;;;;;1.00;99.90;;;;;;2585473;54;19941;31
2023/12/10 07:01:00;;;;;;;;;;;1.30;99.90;;;;;;2604127;46;20700;31
2023/12/10 07:03:37;;;;;;;;;;;1.10;99.90;;;;;;2585582;54;20728;31
2023/12/10 07:06:09;;;;;;;;;;;1.10;99.90;;;;;;2585283;54;19935;31
2023/12/10 07:08:43;;;;;;;;;;;-2.00;99.90;;;;;;2585388;54;19935;31
2023/12/10 07:11:15;;;;;;;;;;;1.10;99.90;;;;;;2702161;39;20970;31
2023/12/10 07:13:48;;;;;;;;;;;1.10;99.90;;;;;;2604093;47;21026;31
2023/12/10 07:16:20;;;;;;;;;;;1.10;99.90;;;;;;2683772;39;22212;31
2023/12/10 07:18:57;;;;;;;;;;;1.50;99.90;;;;;;2603662;47;20783;31
2023/12/10 07:21:29;;;;;;;;;;;1.10;99.90;;;;;;2603644;47;19935;31
2023/12/10 07:24:01;;;;;;;;;;;1.00;99.90;;;;;;2603741;47;21773;31
2023/12/10 07:26:33;;;;;;;;;;;1.00;99.90;;;;;;2585579;54;20786;31
2023/12/10 07:29:06;;;;;;;;;;;1.10;99.90;;;;;;2585653;54;22341;31
2023/12/10 07:31:38;;;;;;;;;;;1.00;99.90;;;;;;2585222;54;20025;31
2023/12/10 07:34:13;;;;;;;;;;;1.30;99.90;;;;;;2604060;47;19941;31
2023/12/10 07:36:45;;;;;;;;;;;1.10;99.90;;;;;;2585164;54;20830;31
2023/12/10 07:39:20;;;;;;;;;;;1.00;99.90;;;;;;2584778;54;20005;31
2023/12/10 07:41:53;;;;;;;;;;;0.90;99.90;;;;;;2585179;54;20812;31
2023/12/10 07:44:25;;;;;;;;;;;1.10;99.90;;;;;;2585210;54;19941;31
2023/12/10 07:46:59;;;;;;;;;;;1.10;99.90;;;;;;2584211;54;20785;31
2023/12/10 07:49:34;;;;;;;;;;;1.20;99.90;;;;;;2584855;54;19934;31
2023/12/10 07:52:07;;;;;;;;;;;1.10;99.90;;;;;;2585352;54;20697;31
2023/12/10 07:54:40;;;;;;;;;;;1.20;99.90;;;;;;2585193;54;20020;31
2023/12/10 07:57:12;;;;;;;;;;;0.90;99.90;;;;;;2683271;39;21074;31
2023/12/10 07:59:44;;;;;;;;;;;1.30;99.90;;;;;;2701537;39;20994;31
2023/12/10 08:02:18;;;;;;;;;;;1.30;99.90;;;;;;2585930;54;19934;31
2023/12/10 08:04:54;;;;;;;;;;;1.30;99.90;;;;;;2585892;54;19953;31
2023/12/10 08:07:26;;;;;;;;;;;1.40;99.90;;;;;;2585538;54;19940;31
2023/12/10 08:10:00;;;;;;;;;;;1.30;99.90;;;;;;2585766;54;19950;31
2023/12/10 08:12:34;;;;;;;;;;;-1.80;99.90;;;;;;2585970;54;20714;31
2023/12/10 08:15:08;;;;;;;;;;;1.30;99.90;;;;;;2585603;54;20889;31
2023/12/10 08:17:41;;;;;;;;;;;4.60;99.90;;;;;;2586175;54;20060;31
2023/12/10 08:20:19;;;;;;;;;;;0.30;99.90;;;;;;2586208;54;19960;31
2023/12/10 08:22:54;;;;;;;;;;;1.50;99.90;;;;;;2585705;54;19946;31
2023/12/10 08:25:27;;;;;;;;;;;-0.80;99.90;;;;;;2604064;46;19934;31
2023/12/10 08:28:03;;;;;;;;;;;1.40;99.90;;;;;;2585528;54;20824;31
2023/12/10 08:30:37;;;;;;;;;;;1.40;99.90;;;;;;2585494;54;20890;31
2023/12/10 08:33:12;;;;;;;;;;;1.30;99.90;;;;;;2603776;46;19946;31
2023/12/10 08:35:48;;;;;;;;;;;1.50;99.90;;;;;;2585544;54;19935;31
2023/12/10 08:38:23;;;;;;;;;;;1.60;99.90;;;;;;2585364;54;20720;31
2023/12/10 08:40:59;;;;;;;;;;;1.50;99.90;;;;;;2604260;46;19957;31
2023/12/10 08:43:34;;;;;;;;;;;1.50;99.90;;;;;;2603755;46;19935;31
2023/12/10 08:46:08;;;;;;;;;;;4.10;99.90;;;;;;2603715;46;19934;31
2023/12/10 08:48:42;;;;;;;;;;;1.60;99.90;;;;;;2585832;54;19941;31
2023/12/10 08:51:17;;;;;;;;;;;1.50;99.90;;;;;;2604257;46;19946;31
2023/12/10 08:53:51;;;;;;;;;;;1.70;99.90;;;;;;2585830;54;19934;31
2023/12/10 08:56:26;;;;;;;;;;;1.70;99.90;;;;;;2603717;46;19940;31
2023/12/10 08:59:01;;;;;;;;;;;1.70;99.90;;;;;;2585946;54;19960;31
2023/12/10 09:01:36;;;;;;;;;;;4.20;99.90;;;;;;2584960;54;20893;31
2023/12/10 09:04:13;;;;;;;;;;;4.20;99.90;;;;;;2603965;46;20869;31
2023/12/10 09:06:54;;;;;;;;;;;1.50;99.90;;;;;;2585762;54;20866;31
2023/12/10 09:12:23;;;;;;;;;;;1.90;99.90;;;;;;2584536;54;19942;31
2023/12/10 09:15:01;;;;;;;;;;;1.80;99.90;;;;;;2604024;46;20886;31
2023/12/10 09:32:53;;;;;;;;;;;1.90;99.90;;;;;;2602276;54;21259;31
2023/12/10 09:44:18;;;;;;;;;;;2.10;99.90;;;;;;2605399;54;19958;31
2023/12/10 09:49:46;;;;;;;;;;;2.00;99.90;;;;;;2584703;54;20870;31
2023/12/10 09:55:09;;;;;;;;;;;1.90;99.90;;;;;;2585393;54;20863;31
2023/12/10 09:57:51;;;;;;;;;;;4.40;99.90;;;;;;2585331;54;20887;31
2023/12/10 10:00:26;;;;;;;;;;;1.90;99.90;;;;;;2585512;54;19934;31
2023/12/10 10:03:04;;;;;;;;;;;2.10;99.90;;;;;;2585445;54;19934;31
2023/12/10 10:05:44;;;;;;;;;;;4.40;99.90;;;;;;2585819;54;20728;31
2023/12/10 10:08:18;;;;;;;;;;;1.90;99.90;;;;;;2585741;54;19934;31
2023/12/10 10:10:55;;;;;;;;;;;-1.10;99.90;;;;;;2585372;54;19934;31
2023/12/10 10:13:29;;;;;;;;;;;2.10;99.90;;;;;;2585637;54;19934;31
2023/12/10 10:16:13;;;;;;;;;;;1.90;99.90;;;;;;2683543;39;20976;31
2023/12/10 10:18:50;;;;;;;;;;;1.90;99.90;;;;;;2585380;54;20830;31
2023/12/10 10:24:09;;;;;;;;;;;2.10;99.90;;;;;;2585740;54;19965;31
2023/12/10 10:29:25;;;;;;;;;;;1.90;99.90;;;;;;2584940;54;19941;31
2023/12/10 10:32:01;;;;;;;;;;;2.00;99.90;;;;;;2603174;46;20825;31
2023/12/10 10:34:39;;;;;;;;;;;2.00;99.90;;;;;;2603970;46;19939;31
2023/12/10 10:37:15;;;;;;;;;;;4.40;99.90;;;;;;2585607;54;20825;31
2023/12/10 10:39:50;;;;;;;;;;;2.10;99.90;;;;;;2585159;54;20837;31
2023/12/10 10:42:24;;;;;;;;;;;2.00;99.90;;;;;;2603968;46;19935;31
2023/12/10 10:44:59;;;;;;;;;;;2.30;99.90;;;;;;2603780;46;19934;31
2023/12/10 10:47:36;;;;;;;;;;;2.40;99.90;;;;;;2603660;46;19942;31
2023/12/10 10:50:11;;;;;;;;;;;2.30;99.90;;;;;;2603858;46;19938;31
2023/12/10 10:52:57;;;;;;;;;;;2.30;99.90;;;;;;2585487;54;20838;31
2023/12/10 10:55:30;;;;;;;;;;;4.10;99.90;;;;;;2701786;39;22223;31
2023/12/10 10:58:06;;;;;;;;;;;2.70;99.90;;;;;;2584962;54;20698;31
2023/12/10 11:00:40;;;;;;;;;;;2.40;99.90;;;;;;2585364;54;19938;31
2023/12/10 11:03:17;;;;;;;;;;;2.20;99.90;;;;;;2603758;46;19966;31
2023/12/10 11:05:50;;;;;;;;;;;2.60;99.90;;;;;;2683373;39;20938;31
2023/12/10 11:08:26;;;;;;;;;;;2.50;99.90;;;;;;2603877;47;19986;31
2023/12/10 11:11:03;;;;;;;;;;;2.70;99.90;;;;;;2604275;47;20840;31
2023/12/10 11:14:04;;;;;;;;;;;2.50;99.90;;;;;;2603822;47;20817;31
2023/12/10 11:16:39;;;;;;;;;;;2.70;99.90;;;;;;2584861;54;19934;31
2023/12/10 11:19:17;;;;;;;;;;;2.80;99.90;;;;;;2603396;47;19941;31
2023/12/10 11:21:53;;;;;;;;;;;2.70;99.90;;;;;;2603523;47;20788;31
2023/12/10 11:24:29;;;;;;;;;;;2.80;99.90;;;;;;2585550;54;20707;31
2023/12/10 11:27:06;;;;;;;;;;;2.80;99.90;;;;;;2585571;54;20813;31
2023/12/10 11:29:43;;;;;;;;;;;2.80;99.90;;;;;;2585408;54;19993;31
2023/12/10 11:32:17;;;;;;;;;;;2.90;99.90;;;;;;2585192;54;19934;31
2023/12/10 11:34:56;;;;;;;;;;;2.90;99.90;;;;;;2604379;47;20809;31
2023/12/10 11:37:31;;;;;;;;;;;2.80;99.90;;;;;;2585743;54;19941;31
2023/12/10 11:40:08;;;;;;;;;;;2.90;99.90;;;;;;2604578;46;21106;31
2023/12/10 11:42:40;;;;;;;;;;;2.90;99.90;;;;;;2586190;54;21082;31
2023/12/10 11:45:15;;;;;;;;;;;3.00;99.90;;;;;;2585736;54;19970;31
2023/12/10 11:47:55;;;;;;;;;;;3.00;99.90;;;;;;2585726;54;19965;31
2023/12/10 11:50:34;;;;;;;;;;;3.20;99.90;;;;;;2683393;39;21403;31
2023/12/10 11:53:06;;;;;;;;;;;3.10;99.90;;;;;;2586317;54;21090;31
2023/12/10 11:55:44;;;;;;;;;;;3.30;99.90;;;;;;2585975;54;20027;31
2023/12/10 11:58:22;;;;;;;;;;;3.20;99.90;;;;;;2604020;46;20817;31
2023/12/10 12:01:02;;;;;;;;;;;3.10;99.90;;;;;;2604142;46;19942;31
2023/12/10 12:03:35;;;;;;;;;;;3.50;99.90;;;;;;2585780;54;19984;31
2023/12/10 12:06:11;;;;;;;;;;;3.30;99.90;;;;;;2586005;54;19935;31
2023/12/10 12:08:46;;;;;;;;;;;3.40;99.90;;;;;;2604256;46;19956;31
2023/12/10 12:11:20;;;;;;;;;;;2.70;99.90;;;;;;2585977;54;19940;31
2023/12/10 12:13:57;;;;;;;;;;;3.60;99.90;;;;;;2585797;54;20866;31
2023/12/10 12:16:31;;;;;;;;;;;4.70;99.90;;;;;;2585907;54;19942;31
2023/12/10 12:19:06;;;;;;;;;;;3.60;99.90;;;;;;2586000;54;20654;31
2023/12/10 12:21:44;;;;;;;;;;;3.60;99.90;;;;;;2604068;46;19951;31
2023/12/10 12:24:17;;;;;;;;;;;3.70;99.90;;;;;;2585536;54;19938;31
2023/12/10 12:26:50;;;;;;;;;;;3.90;99.90;;;;;;2585448;54;20722;31
2023/12/10 12:29:24;;;;;;;;;;;3.80;99.90;;;;;;2585834;54;20008;31
2023/12/10 12:31:56;;;;;;;;;;;3.80;99.90;;;;;;2585893;54;20813;31
2023/12/10 12:34:50;;;;;;;;;;;3.80;99.90;;;;;;2604457;46;19935;31
2023/12/10 12:37:25;;;;;;;;;;;1.60;99.90;;;;;;2585833;54;20813;31
2023/12/10 12:39:59;;;;;;;;;;;3.90;99.90;;;;;;2604146;46;20808;31
2023/12/10 12:42:36;;;;;;;;;;;3.80;99.90;;;;;;2586135;54;19990;31
2023/12/10 12:45:09;;;;;;;;;;;3.80;99.90;;;;;;2585168;54;19993;31
2023/12/10 12:47:42;;;;;;;;;;;3.90;99.90;;;;;;2603984;46;20683;31
2023/12/10 12:50:14;;;;;;;;;;;3.90;99.90;;;;;;2585355;54;20927;31
2023/12/10 12:52:51;;;;;;;;;;;4.30;99.90;;;;;;2585913;54;20843;31
2023/12/10 12:55:24;;;;;;;;;;;4.40;99.90;;;;;;2586134;54;21058;31
2023/12/10 12:57:57;;;;;;;;;;;3.90;99.90;;;;;;2604274;46;19993;31
2023/12/10 13:00:32;;;;;;;;;;;4.50;99.90;;;;;;2604096;46;20781;31
2023/12/10 13:03:06;;;;;;;;;;;3.90;99.90;;;;;;2604440;46;20829;31
2023/12/10 13:05:40;;;;;;;;;;;3.80;99.90;;;;;;2585814;54;19939;31
2023/12/10 13:08:17;;;;;;;;;;;4.20;99.90;;;;;;2585972;54;19941;31
2023/12/10 13:10:49;;;;;;;;;;;3.90;99.90;;;;;;2585807;54;19963;31
2023/12/10 13:13:21;;;;;;;;;;;4.10;99.90;;;;;;2604118;46;20824;31
2023/12/10 13:15:53;;;;;;;;;;;3.80;99.90;;;;;;2585692;54;19941;31
2023/12/10 13:18:27;;;;;;;;;;;4.00;99.90;;;;;;2585369;54;20834;31
2023/12/10 13:20:59;;;;;;;;;;;4.10;99.90;;;;;;2585892;54;19938;31
2023/12/10 13:23:43;;;;;;;;;;;0.90;99.90;;;;;;2585602;54;20816;31
2023/12/10 13:26:15;;;;;;;;;;;3.80;99.90;;;;;;2585739;54;20860;31
2023/12/10 13:28:48;;;;;;;;;;;4.70;99.90;;;;;;2585570;54;20785;31
2023/12/10 13:31:20;;;;;;;;;;;3.90;99.90;;;;;;2585616;54;19934;31
2023/12/10 13:33:53;;;;;;;;;;;4.00;99.90;;;;;;2585586;54;20716;31
2023/12/10 13:36:25;;;;;;;;;;;3.90;99.90;;;;;;2585599;54;19934;31
2023/12/10 13:39:03;;;;;;;;;;;4.30;99.90;;;;;;2585483;54;20671;31
2023/12/10 13:41:35;;;;;;;;;;;4.00;99.90;;;;;;2702502;39;20913;31
2023/12/10 13:44:07;;;;;;;;;;;3.80;99.90;;;;;;2585947;54;21754;31
2023/12/10 13:46:39;;;;;;;;;;;3.80;99.90;;;;;;2585707;54;19941;31
2023/12/10 13:49:11;;;;;;;;;;;4.10;99.90;;;;;;2585621;54;20804;31
2023/12/10 13:51:45;;;;;;;;;;;3.90;99.90;;;;;;2585582;54;20033;31
2023/12/10 13:54:20;;;;;;;;;;;4.00;99.90;;;;;;2604145;46;20853;31
2023/12/10 13:56:53;;;;;;;;;;;3.90;99.90;;;;;;2603499;46;20870;31
2023/12/10 13:59:26;;;;;;;;;;;3.90;99.90;;;;;;2585774;54;20858;31
2023/12/10 14:01:58;;;;;;;;;;;4.00;99.90;;;;;;2604157;46;20020;31
2023/12/10 14:04:30;;;;;;;;;;;1.10;99.90;;;;;;2585655;54;20812;31
2023/12/10 14:07:06;;;;;;;;;;;4.00;99.90;;;;;;2604050;46;20709;31
2023/12/10 14:09:40;;;;;;;;;;;4.10;99.90;;;;;;2585533;54;21905;31
2023/12/10 14:12:12;;;;;;;;;;;7.40;99.90;;;;;;2585813;54;20725;31
2023/12/10 14:14:46;;;;;;;;;;;4.10;99.90;;;;;;2585146;54;20767;31
2023/12/10 14:17:18;;;;;;;;;;;4.10;99.90;;;;;;2585506;54;19938;31
2023/12/10 14:19:51;;;;;;;;;;;4.30;99.90;;;;;;2585456;54;19936;31
2023/12/10 14:22:23;;;;;;;;;;;4.10;99.90;;;;;;2585794;54;21768;31
2023/12/10 14:24:58;;;;;;;;;;;4.00;99.90;;;;;;2585590;54;20814;31
2023/12/10 14:27:30;;;;;;;;;;;4.10;99.90;;;;;;2585371;54;19942;31
2023/12/10 14:30:03;;;;;;;;;;;1.60;99.90;;;;;;2585655;54;21044;31
2023/12/10 14:32:37;;;;;;;;;;;4.20;99.90;;;;;;2604123;46;19935;31
2023/12/10 14:35:11;;;;;;;;;;;4.40;99.90;;;;;;2604231;46;19957;31
2023/12/10 14:37:45;;;;;;;;;;;4.30;99.90;;;;;;2585569;54;19934;31
2023/12/10 14:40:22;;;;;;;;;;;4.40;99.90;;;;;;2585418;54;19934;31
2023/12/10 14:42:54;;;;;;;;;;;4.30;99.90;;;;;;2683591;39;22193;31
2023/12/10 14:45:28;;;;;;;;;;;4.70;99.90;;;;;;2585362;54;19934;31
2023/12/10 14:48:01;;;;;;;;;;;4.30;99.90;;;;;;2603796;46;19935;31
2023/12/10 14:50:33;;;;;;;;;;;4.20;99.90;;;;;;2585437;54;20834;31
2023/12/10 14:53:07;;;;;;;;;;;4.90;99.90;;;;;;2585465;54;20829;31
2023/12/10 14:55:44;;;;;;;;;;;4.90;99.90;;;;;;2604083;46;19934;31
2023/12/10 14:58:16;;;;;;;;;;;4.40;99.90;;;;;;2585452;54;19935;31
2023/12/10 15:00:48;;;;;;;;;;;1.80;99.90;;;;;;2585319;54;20829;31
2023/12/10 15:03:23;;;;;;;;;;;4.60;99.90;;;;;;2585123;54;20823;31
2023/12/10 15:05:55;;;;;;;;;;;4.40;99.90;;;;;;2585420;54;20817;31
2023/12/10 15:08:34;;;;;;;;;;;4.20;99.90;;;;;;2604182;47;19935;31
2023/12/10 15:11:09;;;;;;;;;;;4.30;99.90;;;;;;2586461;54;19938;31
2023/12/10 15:13:45;;;;;;;;;;;1.60;99.90;;;;;;2586201;54;20831;31
2023/12/10 15:16:19;;;;;;;;;;;4.20;99.90;;;;;;2586409;54;19941;31
2023/12/10 15:18:51;;;;;;;;;;;4.40;99.90;;;;;;2604710;46;19994;31
2023/12/10 15:21:25;;;;;;;;;;;4.30;99.90;;;;;;2604782;46;20733;31
2023/12/10 15:23:57;;;;;;;;;;;4.40;99.90;;;;;;2586574;54;21053;31
2023/12/10 15:26:32;;;;;;;;;;;4.40;99.90;;;;;;2586059;54;21831;31
2023/12/10 15:29:06;;;;;;;;;;;4.30;99.90;;;;;;2586087;54;19986;31
2023/12/10 15:31:40;;;;;;;;;;;4.50;99.90;;;;;;2586192;54;19935;31
2023/12/10 15:34:14;;;;;;;;;;;4.70;99.90;;;;;;2586071;54;20802;31
2023/12/10 15:36:48;;;;;;;;;;;4.50;99.90;;;;;;2585873;54;20891;31
2023/12/10 15:39:21;;;;;;;;;;;4.30;99.90;;;;;;2604712;46;20859;31
2023/12/10 15:41:58;;;;;;;;;;;4.50;99.90;;;;;;2586097;54;20763;31
2023/12/10 15:44:32;;;;;;;;;;;4.40;99.90;;;;;;2604656;46;19998;31
2023/12/10 15:47:05;;;;;;;;;;;4.40;99.90;;;;;;2604427;46;20862;31
2023/12/10 15:49:37;;;;;;;;;;;4.50;99.90;;;;;;2604639;46;19934;31
2023/12/10 15:52:10;;;;;;;;;;;4.50;99.90;;;;;;2586317;54;21077;31
2023/12/10 15:54:48;;;;;;;;;;;4.40;99.90;;;;;;2585805;54;19960;31
2023/12/10 15:57:25;;;;;;;;;;;1.90;99.90;;;;;;2604661;46;20694;31
2023/12/10 15:59:59;;;;;;;;;;;4.40;99.90;;;;;;2586015;54;20647;31